Observation data for Goodlett on 01/19/2019      Previous  Date  Next       Current Mesonet Observations  Soil Data  Daily Summary Page  Observations in Plain Language
KGDS 190600Z 34028G36KT 03/M02 A2997 RMK A01 T00301023  RH  069%=      5-min Rain = 0
KGDS 190605Z 34026G36KT 03/M02 A2998 RMK A01 T00291023  RH  069%=      5-min Rain = 0
KGDS 190610Z 34020G26KT 03/M02 A2998 RMK A01 T00291023  RH  069%=      5-min Rain = 0
KGDS 190615Z 34023G30KT 03/M02 A2998 RMK A01 T00261020  RH  072%=      5-min Rain = 0
KGDS 190620Z 34021G26KT 02/M01 A2998 RMK A01 T00191011  RH  081%=      5-min Rain = 0
KGDS 190625Z 33017G24KT 02/M01 A2999 RMK A01 T00151007  RH  086%=      5-min Rain = 0
KGDS 190630Z 33021G28KT 02/M01 A2999 RMK A01 T00151011  RH  084%=      5-min Rain = 0
KGDS 190635Z 33026G33KT 02/M02 A30 RMK A01 T00191016  RH  078%=      5-min Rain = 0
KGDS 190640Z 34025G33KT 02/M02 A30 RMK A01 T00191017  RH  078%=      5-min Rain = 0
KGDS 190645Z 33022G31KT 02/M02 A30 RMK A01 T00191018  RH  078%=      5-min Rain = 0
KGDS 190650Z 33024G32KT 02/M02 A3001 RMK A01 T00161018  RH  078%=      5-min Rain = 0
KGDS 190655Z 33025G31KT 02/M02 A3001 RMK A01 T00151019  RH  079%=      5-min Rain = 0
KGDS 190700Z 33026G32KT 01/M02 A3002 RMK A01 T00141022  RH  078%=      5-min Rain = 0
KGDS 190705Z 34024G30KT 01/M02 A3002 RMK A01 T00121019  RH  081%=      5-min Rain = 0
KGDS 190710Z 34021G28KT 01/M02 A3002 RMK A01 T00141021  RH  078%=      5-min Rain = 0
KGDS 190715Z 34025G33KT 02/M03 A3002 RMK A01 T00161026  RH  074%=      5-min Rain = 0
KGDS 190720Z 34027G34KT 02/M03 A3002 RMK A01 T00161027  RH  073%=      5-min Rain = 0
KGDS 190725Z 34024G31KT 02/M03 A3002 RMK A01 T00151027  RH  074%=      5-min Rain = 0
KGDS 190730Z 34021G29KT 01/M03 A3003 RMK A01 T00141027  RH  075%=      5-min Rain = 0
KGDS 190735Z 34017G23KT 01/M03 A3003 RMK A01 T00131026  RH  076%=      5-min Rain = 0
KGDS 190740Z 34017G31KT 01/M03 A3003 RMK A01 T00131026  RH  076%=      5-min Rain = 0
KGDS 190745Z 34026G33KT 02/M03 A3004 RMK A01 T00161031  RH  072%=      5-min Rain = 0
KGDS 190750Z 34024G31KT 02/M03 A3004 RMK A01 T00161031  RH  071%=      5-min Rain = 0
KGDS 190755Z 34020G27KT 02/M03 A3004 RMK A01 T00161031  RH  071%=      5-min Rain = 0
KGDS 190800Z 34023G31KT 02/M03 A3004 RMK A01 T00171031  RH  071%=      5-min Rain = 0
KGDS 190805Z 34023G29KT 02/M03 A3004 RMK A01 T00171032  RH  070%=      5-min Rain = 0
KGDS 190810Z 34024G33KT 02/M03 A3004 RMK A01 T00181033  RH  069%=      5-min Rain = 0
KGDS 190815Z 34023G29KT 02/M03 A3004 RMK A01 T00181033  RH  069%=      5-min Rain = 0
KGDS 190820Z 34019G24KT 02/M03 A3004 RMK A01 T00181032  RH  070%=      5-min Rain = 0
KGDS 190825Z 34020G25KT 02/M03 A3004 RMK A01 T00181032  RH  070%=      5-min Rain = 0
KGDS 190830Z 33016G22KT 02/M03 A3004 RMK A01 T00181031  RH  071%=      5-min Rain = 0
KGDS 190835Z 33015G20KT 02/M03 A3004 RMK A01 T00181030  RH  071%=      5-min Rain = 0
KGDS 190840Z 33017KT 02/M03 A3005 RMK A01 T00201030  RH  070%=      5-min Rain = 0
KGDS 190845Z 33017G27KT 02/M03 A3005 RMK A01 T00221029  RH  070%=      5-min Rain = 0
KGDS 190850Z 33021G28KT 02/M03 A3005 RMK A01 T00241028  RH  069%=      5-min Rain = 0
KGDS 190855Z 33018G26KT 02/M03 A3006 RMK A01 T00241027  RH  069%=      5-min Rain = 0
KGDS 190900Z 33018G25KT 02/M03 A3006 RMK A01 T00241027  RH  069%=      5-min Rain = 0
KGDS 190905Z 33020G28KT 03/M03 A3006 RMK A01 T00251028  RH  068%=      5-min Rain = 0
KGDS 190910Z 34024G32KT 03/M03 A3007 RMK A01 T00261030  RH  067%=      5-min Rain = 0
KGDS 190915Z 34023G30KT 03/M03 A3007 RMK A01 T00261030  RH  067%=      5-min Rain = 0
KGDS 190920Z 34022G27KT 03/M03 A3007 RMK A01 T00251031  RH  067%=      5-min Rain = 0
KGDS 190925Z 34026G35KT 03/M03 A3008 RMK A01 T00251034  RH  065%=      5-min Rain = 0
KGDS 190930Z 34024G32KT 02/M04 A3008 RMK A01 T00241035  RH  065%=      5-min Rain = 0
KGDS 190935Z 34022G27KT 02/M04 A3008 RMK A01 T00231036  RH  066%=      5-min Rain = 0
KGDS 190940Z 34019G24KT 02/M04 A3008 RMK A01 T00221035  RH  067%=      5-min Rain = 0
KGDS 190945Z 33023G28KT 02/M04 A3009 RMK A01 T00211037  RH  066%=      5-min Rain = 0
KGDS 190950Z 33021G29KT 02/M04 A3009 RMK A01 T00191038  RH  066%=      5-min Rain = 0
KGDS 190955Z 33027G33KT 02/M04 A301 RMK A01 T00171042  RH  065%=      5-min Rain = 0
KGDS 191000Z 33024G32KT 02/M04 A301 RMK A01 T00161043  RH  065%=      5-min Rain = 0
KGDS 191005Z 33030G38KT 01/M05 A301 RMK A01 T00141047  RH  064%=      5-min Rain = 0
KGDS 191010Z 34027G35KT 01/M05 A3011 RMK A01 T00121048  RH  064%=      5-min Rain = 0
KGDS 191015Z 34026G35KT 01/M05 A3011 RMK A01 T00111049  RH  065%=      5-min Rain = 0
KGDS 191020Z 34021G28KT 01/M05 A3011 RMK A01 T00111048  RH  065%=      5-min Rain = 0
KGDS 191025Z 33018G24KT 01/M05 A3011 RMK A01 T00111046  RH  066%=      5-min Rain = 0
KGDS 191030Z 32022G28KT 01/M05 A3011 RMK A01 T00081049  RH  065%=      5-min Rain = 0
KGDS 191035Z 33025KT 01/M05 A3012 RMK A01 T00061052  RH  065%=      5-min Rain = 0
KGDS 191040Z 33028G37KT 01/M05 A3012 RMK A01 T00051053  RH  065%=      5-min Rain = 0
KGDS 191045Z 33028G35KT 00/M06 A3012 RMK A01 T00031056  RH  065%=      5-min Rain = 0
KGDS 191050Z 34025G33KT 00/M06 A3013 RMK A01 T00021057  RH  065%=      5-min Rain = 0
KGDS 191055Z 33024G30KT 00/06 A3013 RMK A01 T00000-57  RH  065%=      5-min Rain = 0
KGDS 191100Z 33022G30KT M00/M06 A3013 RMK A01 T10011058  RH  066%=      5-min Rain = 0
KGDS 191105Z 33023G30KT M00/M06 A3014 RMK A01 T10021058  RH  066%=      5-min Rain = 0
KGDS 191110Z 33024G34KT M00/M06 A3013 RMK A01 T10031059  RH  066%=      5-min Rain = 0
KGDS 191115Z 33023G32KT M00/M06 A3013 RMK A01 T10031060  RH  066%=      5-min Rain = 0
KGDS 191120Z 33024G31KT M00/M06 A3014 RMK A01 T10031060  RH  065%=      5-min Rain = 0
KGDS 191125Z 33025G30KT M00/M06 A3014 RMK A01 T10041061  RH  065%=      5-min Rain = 0
KGDS 191130Z 34022G27KT M01/M06 A3014 RMK A01 T10051062  RH  065%=      5-min Rain = 0
KGDS 191135Z 33019KT M01/M06 A3014 RMK A01 T10061061  RH  066%=      5-min Rain = 0
KGDS 191140Z 33018KT M01/M06 A3014 RMK A01 T10061061  RH  067%=      5-min Rain = 0
KGDS 191145Z 33017KT M01/M06 A3015 RMK A01 T10061060  RH  067%=      5-min Rain = 0
KGDS 191150Z 33016KT M01/M06 A3015 RMK A01 T10061060  RH  067%=      5-min Rain = 0
KGDS 191155Z 32016G21KT M01/M06 A3016 RMK A01 T10061059  RH  068%=      5-min Rain = 0
KGDS 191200Z 32015G20KT M01/M06 A3016 RMK A01 T10061058  RH  068%=      5-min Rain = 0
KGDS 191205Z 32018G25KT M01/M06 A3016 RMK A01 T10051058  RH  068%=      5-min Rain = 0
KGDS 191210Z 33017KT M01/M06 A3016 RMK A01 T10061058  RH  068%=      5-min Rain = 0
KGDS 191215Z 33019G24KT M01/M06 A3016 RMK A01 T10061060  RH  067%=      5-min Rain = 0
KGDS 191220Z 33020G25KT M01/M06 A3016 RMK A01 T10071061  RH  067%=      5-min Rain = 0
KGDS 191225Z 33020G25KT M01/M06 A3017 RMK A01 T10071061  RH  067%=      5-min Rain = 0
KGDS 191230Z 33019G26KT M01/M06 A3018 RMK A01 T10071061  RH  067%=      5-min Rain = 0
KGDS 191235Z 33016KT M01/M06 A3018 RMK A01 T10091061  RH  068%=      5-min Rain = 0
KGDS 191240Z 33016KT M01/M06 A3018 RMK A01 T10091061  RH  068%=      5-min Rain = 0
KGDS 191245Z 32014G19KT M01/M06 A3019 RMK A01 T10111061  RH  069%=      5-min Rain = 0
KGDS 191250Z 32015KT M01/M06 A3019 RMK A01 T10111061  RH  069%=      5-min Rain = 0
KGDS 191255Z 32021G28KT M01/M06 A302 RMK A01 T10101063  RH  067%=      5-min Rain = 0
KGDS 191300Z 32023G29KT M01/M07 A302 RMK A01 T10091066  RH  065%=      5-min Rain = 0
KGDS 191305Z 33021G27KT M01/M07 A302 RMK A01 T10091066  RH  065%=      5-min Rain = 0
KGDS 191310Z 33021KT M01/M07 A3021 RMK A01 T10101066  RH  065%=      5-min Rain = 0
KGDS 191315Z 33021G26KT M01/M07 A3021 RMK A01 T10101068  RH  065%=      5-min Rain = 0
KGDS 191320Z 33023G28KT M01/M07 A3021 RMK A01 T10101068  RH  064%=      5-min Rain = 0
KGDS 191325Z 33022G28KT M01/M07 A3022 RMK A01 T10101069  RH  064%=      5-min Rain = 0
KGDS 191330Z 33019G25KT M01/M07 A3022 RMK A01 T10101069  RH  064%=      5-min Rain = 0
KGDS 191335Z 33019G25KT M01/M07 A3023 RMK A01 T10101070  RH  064%=      5-min Rain = 0
KGDS 191340Z 33019G24KT M01/M07 A3023 RMK A01 T10111070  RH  064%=      5-min Rain = 0
KGDS 191345Z 33020G28KT M01/M07 A3023 RMK A01 T10111072  RH  064%=      5-min Rain = 0
KGDS 191350Z 33018G24KT M01/M07 A3023 RMK A01 T10121072  RH  064%=      5-min Rain = 0
KGDS 191355Z 33018G25KT M01/M07 A3023 RMK A01 T10131072  RH  064%=      5-min Rain = 0
KGDS 191400Z 33016G23KT M01/M07 A3024 RMK A01 T10131072  RH  064%=      5-min Rain = 0
KGDS 191405Z 33016G21KT M01/M07 A3024 RMK A01 T10131073  RH  064%=      5-min Rain = 0
KGDS 191410Z 33016G22KT M01/M07 A3025 RMK A01 T10121073  RH  063%=      5-min Rain = 0
KGDS 191415Z 33017G23KT M01/M07 A3025 RMK A01 T10121073  RH  063%=      5-min Rain = 0
KGDS 191420Z 33019G25KT M01/M07 A3025 RMK A01 T10111074  RH  062%=      5-min Rain = 0
KGDS 191425Z 33020G29KT M01/M08 A3025 RMK A01 T10101075  RH  062%=      5-min Rain = 0
KGDS 191430Z 33018G25KT M01/M07 A3026 RMK A01 T10101074  RH  062%=      5-min Rain = 0
KGDS 191435Z 34020G28KT M01/M07 A3026 RMK A01 T10091074  RH  062%=      5-min Rain = 0
KGDS 191440Z 33019G25KT M01/M07 A3026 RMK A01 T10091073  RH  062%=      5-min Rain = 0
KGDS 191445Z 34019G25KT M01/M07 A3026 RMK A01 T10081073  RH  061%=      5-min Rain = 0
KGDS 191450Z 33018G24KT M01/M07 A3026 RMK A01 T10071072  RH  061%=      5-min Rain = 0
KGDS 191455Z 33020KT M01/M07 A3027 RMK A01 T10061072  RH  061%=      5-min Rain = 0
KGDS 191500Z 33021G26KT M00/M07 A3027 RMK A01 T10041071  RH  061%=      5-min Rain = 0
KGDS 191505Z 33019G25KT M00/M07 A3027 RMK A01 T10031070  RH  060%=      5-min Rain = 0
KGDS 191510Z 33021KT M00/M07 A3028 RMK A01 T10021071  RH  060%=      5-min Rain = 0
KGDS 191515Z 33022G29KT M00/M07 A3028 RMK A01 T10011072  RH  059%=      5-min Rain = 0
KGDS 191520Z 33023G29KT 00/M07 A3028 RMK A01 T00011071  RH  058%=      5-min Rain = 0
KGDS 191525Z 34024G31KT 00/M07 A3028 RMK A01 T00011073  RH  058%=      5-min Rain = 0
KGDS 191530Z 33025G32KT 00/M07 A3029 RMK A01 T00011073  RH  057%=      5-min Rain = 0
KGDS 191535Z 33024G31KT 00/M07 A3029 RMK A01 T00031074  RH  056%=      5-min Rain = 0
KGDS 191540Z 34025G31KT 00/M08 A303 RMK A01 T00041075  RH  055%=      5-min Rain = 0
KGDS 191545Z 33026G32KT 01/M08 A303 RMK A01 T00051077  RH  054%=      5-min Rain = 0
KGDS 191550Z 33025KT 01/M08 A303 RMK A01 T00061076  RH  054%=      5-min Rain = 0
KGDS 191555Z 33026G31KT 01/M08 A303 RMK A01 T00071078  RH  053%=      5-min Rain = 0
KGDS 191600Z 33021G27KT 01/M07 A303 RMK A01 T00101074  RH  053%=      5-min Rain = 0
KGDS 191605Z 33023G30KT 01/M07 A303 RMK A01 T00131074  RH  053%=      5-min Rain = 0
KGDS 191610Z 33026G33KT 01/M08 A303 RMK A01 T00131077  RH  051%=      5-min Rain = 0
KGDS 191615Z 33027G34KT 01/M08 A3031 RMK A01 T00131080  RH  050%=      5-min Rain = 0
KGDS 191620Z 34027G34KT 01/M08 A3031 RMK A01 T00131082  RH  049%=      5-min Rain = 0
KGDS 191625Z 33022G30KT 02/M08 A3031 RMK A01 T00191078  RH  049%=      5-min Rain = 0
KGDS 191630Z 34022G30KT 02/M08 A3031 RMK A01 T00211079  RH  047%=      5-min Rain = 0
KGDS 191635Z 34024G31KT 02/M08 A3032 RMK A01 T00191081  RH  047%=      5-min Rain = 0
KGDS 191640Z 33022G28KT 02/M08 A3032 RMK A01 T00221079  RH  047%=      5-min Rain = 0
KGDS 191645Z 34024G30KT 02/M08 A3032 RMK A01 T00221081  RH  046%=      5-min Rain = 0
KGDS 191650Z 33024G29KT 02/M08 A3032 RMK A01 T00221082  RH  046%=      5-min Rain = 0
KGDS 191655Z 34023G30KT 03/M08 A3032 RMK A01 T00251080  RH  046%=      5-min Rain = 0
KGDS 191700Z 34025G31KT 03/M08 A3032 RMK A01 T00251082  RH  045%=      5-min Rain = 0
KGDS 191705Z 33025G34KT 03/M08 A3032 RMK A01 T00251082  RH  045%=      5-min Rain = 0
KGDS 191710Z 34024G30KT 03/M08 A3032 RMK A01 T00251082  RH  045%=      5-min Rain = 0
KGDS 191715Z 34024G32KT 03/M08 A3032 RMK A01 T00281081  RH  045%=      5-min Rain = 0
KGDS 191720Z 34023G33KT 03/M08 A3032 RMK A01 T00311081  RH  043%=      5-min Rain = 0
KGDS 191725Z 34025G30KT 03/M08 A3032 RMK A01 T00321082  RH  043%=      5-min Rain = 0
KGDS 191730Z 34026G33KT 03/M09 A3032 RMK A01 T00291085  RH  043%=      5-min Rain = 0
KGDS 191735Z 33023G30KT 03/M08 A3032 RMK A01 T00311083  RH  043%=      5-min Rain = 0
KGDS 191740Z 34025G30KT 03/M08 A3032 RMK A01 T00341084  RH  042%=      5-min Rain = 0
KGDS 191745Z 34023G28KT 03/M08 A3032 RMK A01 T00331084  RH  042%=      5-min Rain = 0
KGDS 191750Z 34022G28KT 04/M08 A3032 RMK A01 T00361083  RH  041%=      5-min Rain = 0
KGDS 191755Z 34024G31KT 04/M09 A3032 RMK A01 T00351086  RH  041%=      5-min Rain = 0
KGDS 191800Z 34022G32KT 04/M09 A3032 RMK A01 T00351086  RH  041%=      5-min Rain = 0
KGDS 191805Z 33027G34KT 04/M09 A3032 RMK A01 T00361089  RH  039%=      5-min Rain = 0
KGDS 191810Z 34026G33KT 04/M09 A3032 RMK A01 T00361090  RH  039%=      5-min Rain = 0
KGDS 191815Z 33026G32KT 04/M09 A3032 RMK A01 T00381089  RH  039%=      5-min Rain = 0
KGDS 191820Z 34025G30KT 04/M09 A3031 RMK A01 T00351091  RH  039%=      5-min Rain = 0
KGDS 191825Z 34022G28KT 04/M09 A3031 RMK A01 T00381089  RH  039%=      5-min Rain = 0
KGDS 191830Z 33022G28KT 04/M09 A3031 RMK A01 T00381089  RH  039%=      5-min Rain = 0
KGDS 191835Z 33021G29KT 04/M09 A303 RMK A01 T00411086  RH  039%=      5-min Rain = 0
KGDS 191840Z 34021G27KT 04/M09 A303 RMK A01 T00381090  RH  039%=      5-min Rain = 0
KGDS 191845Z 33024G33KT 04/M09 A303 RMK A01 T00391090  RH  038%=      5-min Rain = 0
KGDS 191850Z 33025G32KT 04/M09 A303 RMK A01 T00401090  RH  038%=      5-min Rain = 0
KGDS 191855Z 34021G28KT 04/M09 A303 RMK A01 T00401090  RH  038%=      5-min Rain = 0
KGDS 191900Z 33025G31KT 04/M09 A303 RMK A01 T00421090  RH  037%=      5-min Rain = 0
KGDS 191905Z 34025G33KT 05/M09 A303 RMK A01 T00451089  RH  037%=      5-min Rain = 0
KGDS 191910Z 34024G32KT 05/M09 A303 RMK A01 T00451090  RH  037%=      5-min Rain = 0
KGDS 191915Z 34023G30KT 04/M09 A3029 RMK A01 T00441091  RH  037%=      5-min Rain = 0
KGDS 191920Z 34024G33KT 05/M09 A3029 RMK A01 T00451090  RH  037%=      5-min Rain = 0
KGDS 191925Z 34021G27KT 05/M09 A3029 RMK A01 T00451089  RH  037%=      5-min Rain = 0
KGDS 191930Z 34023G30KT 05/M09 A3029 RMK A01 T00471088  RH  037%=      5-min Rain = 0
KGDS 191935Z 34024G30KT 05/M09 A3029 RMK A01 T00451089  RH  037%=      5-min Rain = 0
KGDS 191940Z 34024G30KT 05/M09 A3028 RMK A01 T00461089  RH  037%=      5-min Rain = 0
KGDS 191945Z 34023G31KT 05/M09 A3028 RMK A01 T00471088  RH  037%=      5-min Rain = 0
KGDS 191950Z 34022G29KT 05/M09 A3028 RMK A01 T00481088  RH  037%=      5-min Rain = 0
KGDS 191955Z 34023G31KT 05/M09 A3028 RMK A01 T00471089  RH  037%=      5-min Rain = 0
KGDS 192000Z 34021G27KT 05/M09 A3028 RMK A01 T00481088  RH  037%=      5-min Rain = 0
KGDS 192005Z 35022G30KT 05/M09 A3027 RMK A01 T00481088  RH  036%=      5-min Rain = 0
KGDS 192010Z 34020G25KT 05/M09 A3027 RMK A01 T00481089  RH  036%=      5-min Rain = 0
KGDS 192015Z 33020G25KT 05/M09 A3027 RMK A01 T00491089  RH  036%=      5-min Rain = 0
KGDS 192020Z 33017G22KT 05/M09 A3027 RMK A01 T00481087  RH  037%=      5-min Rain = 0
KGDS 192025Z 33017G22KT 05/M09 A3026 RMK A01 T00501087  RH  036%=      5-min Rain = 0
KGDS 192030Z 33019G26KT 05/M09 A3027 RMK A01 T00521086  RH  036%=      5-min Rain = 0
KGDS 192035Z 33019G25KT 05/M09 A3027 RMK A01 T00521089  RH  035%=      5-min Rain = 0
KGDS 192040Z 34023G33KT 05/M09 A3026 RMK A01 T00501092  RH  035%=      5-min Rain = 0
KGDS 192045Z 33021G28KT 05/M09 A3026 RMK A01 T00511091  RH  035%=      5-min Rain = 0
KGDS 192050Z 34018G26KT 05/M09 A3026 RMK A01 T00531091  RH  035%=      5-min Rain = 0
KGDS 192055Z 34020KT 05/M09 A3026 RMK A01 T00511093  RH  034%=      5-min Rain = 0
KGDS 192100Z 33021G28KT 05/M09 A3026 RMK A01 T00521090  RH  035%=      5-min Rain = 0
KGDS 192105Z 34019G25KT 05/M09 A3026 RMK A01 T00541091  RH  034%=      5-min Rain = 0
KGDS 192110Z 34019G25KT 05/M09 A3026 RMK A01 T00541090  RH  034%=      5-min Rain = 0
KGDS 192115Z 34021G27KT 06/M09 A3026 RMK A01 T00551088  RH  035%=      5-min Rain = 0
KGDS 192120Z 34017G23KT 06/M09 A3026 RMK A01 T00571087  RH  034%=      5-min Rain = 0
KGDS 192125Z 33016G24KT 06/M09 A3026 RMK A01 T00581086  RH  034%=      5-min Rain = 0
KGDS 192130Z 33019G24KT 06/M09 A3027 RMK A01 T00571087  RH  035%=      5-min Rain = 0
KGDS 192135Z 34019KT 06/M09 A3027 RMK A01 T00561088  RH  035%=      5-min Rain = 0
KGDS 192140Z 34018G23KT 06/M09 A3027 RMK A01 T00561087  RH  035%=      5-min Rain = 0
KGDS 192145Z 35015G20KT 06/M09 A3027 RMK A01 T00571088  RH  034%=      5-min Rain = 0
KGDS 192150Z 34015G20KT 06/M09 A3028 RMK A01 T00571087  RH  035%=      5-min Rain = 0
KGDS 192155Z 34016KT 06/M09 A3028 RMK A01 T00571088  RH  034%=      5-min Rain = 0
KGDS 192200Z 33015G21KT 06/M09 A3028 RMK A01 T00581087  RH  034%=      5-min Rain = 0
KGDS 192205Z 35016G22KT 06/M09 A3028 RMK A01 T00581088  RH  034%=      5-min Rain = 0
KGDS 192210Z 34015KT 06/M09 A3028 RMK A01 T00571088  RH  034%=      5-min Rain = 0
KGDS 192215Z 34014KT 06/M09 A3028 RMK A01 T00581088  RH  034%=      5-min Rain = 0
KGDS 192220Z 34015KT 06/M09 A3028 RMK A01 T00581088  RH  034%=      5-min Rain = 0
KGDS 192225Z 34010G15KT 06/M09 A3028 RMK A01 T00601086  RH  034%=      5-min Rain = 0
KGDS 192230Z 34012KT 06/M09 A3028 RMK A01 T00611086  RH  034%=      5-min Rain = 0
KGDS 192235Z 34013KT 06/M09 A3029 RMK A01 T00581087  RH  034%=      5-min Rain = 0
KGDS 192240Z 35014KT 06/M09 A3029 RMK A01 T00571087  RH  034%=      5-min Rain = 0
KGDS 192245Z 34013KT 06/M09 A3029 RMK A01 T00561087  RH  035%=      5-min Rain = 0
KGDS 192250Z 33012G17KT 06/M09 A3029 RMK A01 T00561086  RH  035%=      5-min Rain = 0
KGDS 192255Z 34012KT 06/M09 A3029 RMK A01 T00571085  RH  035%=      5-min Rain = 0
KGDS 192300Z 34012KT 06/M09 A3029 RMK A01 T00551086  RH  035%=      5-min Rain = 0
KGDS 192305Z 34011KT 06/M09 A3029 RMK A01 T00551085  RH  036%=      5-min Rain = 0
KGDS 192310Z 33011KT 06/M08 A3029 RMK A01 T00551084  RH  036%=      5-min Rain = 0
KGDS 192315Z 35013KT 05/M09 A3029 RMK A01 T00531086  RH  036%=      5-min Rain = 0
KGDS 192320Z 35010KT 05/M09 A3029 RMK A01 T00521085  RH  037%=      5-min Rain = 0
KGDS 192325Z 35011KT 05/M09 A3029 RMK A01 T00491085  RH  037%=      5-min Rain = 0
KGDS 192330Z 35012KT 05/M09 A3029 RMK A01 T00481086  RH  037%=      5-min Rain = 0
KGDS 192335Z 36011KT 05/M09 A3028 RMK A01 T00461085  RH  038%=      5-min Rain = 0
KGDS 192340Z 36010KT 04/M09 A3029 RMK A01 T00441085  RH  038%=      5-min Rain = 0
KGDS 192345Z 35009KT 04/M09 A3029 RMK A01 T00411085  RH  039%=      5-min Rain = 0
KGDS 192350Z 36009KT 04/M09 A3029 RMK A01 T00391086  RH  040%=      5-min Rain = 0
KGDS 192355Z 36008KT 04/M09 A3029 RMK A01 T00351085  RH  041%=      5-min Rain = 0
KGDS 200000Z 00007KT 03/M09 A3029 RMK A01 T00331086  RH  041%=      5-min Rain = 0
KGDS 200005Z 01007KT 03/M09 A3029 RMK A01 T00301086  RH  042%=      5-min Rain = 0
KGDS 200010Z 01008KT 03/M09 A3029 RMK A01 T00301087  RH  042%=      5-min Rain = 0
KGDS 200015Z 01007KT 03/M09 A3029 RMK A01 T00281087  RH  043%=      5-min Rain = 0
KGDS 200020Z 01006KT 02/M09 A3029 RMK A01 T00231087  RH  044%=      5-min Rain = 0
KGDS 200025Z 01005KT 02/M09 A303 RMK A01 T00171087  RH  046%=      5-min Rain = 0
KGDS 200030Z 01007KT 02/M09 A3029 RMK A01 T00161087  RH  046%=      5-min Rain = 0
KGDS 200035Z 01007KT 02/M09 A303 RMK A01 T00191087  RH  045%=      5-min Rain = 0
KGDS 200040Z 01006KT 01/M09 A303 RMK A01 T00141088  RH  046%=      5-min Rain = 0
KGDS 200045Z 01005KT 01/M09 A303 RMK A01 T00131088  RH  047%=      5-min Rain = 0
KGDS 200050Z 01005KT 01/M09 A303 RMK A01 T00101087  RH  048%=      5-min Rain = 0
KGDS 200055Z 01005KT 01/M09 A303 RMK A01 T00071087  RH  049%=      5-min Rain = 0
KGDS 200100Z 01004KT 01/M09 A303 RMK A01 T00071088  RH  049%=      5-min Rain = 0
KGDS 200105Z 01005KT 01/M09 A303 RMK A01 T00081088  RH  049%=      5-min Rain = 0
KGDS 200110Z 01005KT 01/M09 A303 RMK A01 T00061087  RH  050%=      5-min Rain = 0
KGDS 200115Z 01006KT 01/M09 A303 RMK A01 T00051087  RH  050%=      5-min Rain = 0
KGDS 200120Z 01007KT 00/M09 A303 RMK A01 T00031086  RH  051%=      5-min Rain = 0
KGDS 200125Z 01007KT 00/M09 A303 RMK A01 T00041086  RH  051%=      5-min Rain = 0
KGDS 200130Z 01007KT 00/M09 A3031 RMK A01 T00041086  RH  051%=      5-min Rain = 0
KGDS 200135Z 36006KT 00/M09 A3031 RMK A01 T00011086  RH  052%=      5-min Rain = 0
KGDS 200140Z 36006KT M00/M09 A303 RMK A01 T10011086  RH  053%=      5-min Rain = 0
KGDS 200145Z 01006KT M00/M09 A303 RMK A01 T10021086  RH  053%=      5-min Rain = 0
KGDS 200150Z 02004KT M01/M09 A303 RMK A01 T10061086  RH  055%=      5-min Rain = 0
KGDS 200155Z 05004KT M01/M09 A3029 RMK A01 T10081086  RH  055%=      5-min Rain = 0
KGDS 200200Z 05004KT M01/M08 A3029 RMK A01 T10081084  RH  056%=      5-min Rain = 0
KGDS 200205Z 06004KT M01/M08 A303 RMK A01 T10091084  RH  057%=      5-min Rain = 0
KGDS 200210Z 05004KT M01/M08 A303 RMK A01 T10091084  RH  056%=      5-min Rain = 0
KGDS 200215Z 04006KT M01/M08 A3029 RMK A01 T10121083  RH  058%=      5-min Rain = 0
KGDS 200220Z 03007KT M02/M08 A3029 RMK A01 T10151080  RH  061%=      5-min Rain = 0
KGDS 200225Z 03006KT M02/M08 A3029 RMK A01 T10161082  RH  061%=      5-min Rain = 0
KGDS 200230Z 03004KT M02/M08 A3029 RMK A01 T10171082  RH  061%=      5-min Rain = 0
KGDS 200235Z 05004KT M02/M08 A3029 RMK A01 T10171083  RH  061%=      5-min Rain = 0
KGDS 200240Z 05006KT M02/M08 A303 RMK A01 T10161083  RH  060%=      5-min Rain = 0
KGDS 200245Z 04006KT M02/M08 A303 RMK A01 T10161081  RH  061%=      5-min Rain = 0
KGDS 200250Z 04005KT M02/M08 A303 RMK A01 T10191081  RH  062%=      5-min Rain = 0
KGDS 200255Z 03005KT M02/M08 A303 RMK A01 T10191080  RH  063%=      5-min Rain = 0
KGDS 200300Z 03005KT M02/M08 A3031 RMK A01 T10201082  RH  063%=      5-min Rain = 0
KGDS 200305Z 03003KT M02/M08 A3032 RMK A01 T10201082  RH  063%=      5-min Rain = 0
KGDS 200310Z 06002KT M02/M08 A3032 RMK A01 T10201082  RH  062%=      5-min Rain = 0
KGDS 200315Z 06003KT M02/M08 A3032 RMK A01 T10171082  RH  061%=      5-min Rain = 0
KGDS 200320Z 04002KT M02/M08 A3032 RMK A01 T10161082  RH  060%=      5-min Rain = 0
KGDS 200325Z 04000KT M02/M08 A3032 RMK A01 T10171081  RH  062%=      5-min Rain = 0
KGDS 200330Z 21002KT M02/M08 A3033 RMK A01 T10241079  RH  066%=      5-min Rain = 0
KGDS 200335Z 22004KT M03/M08 A3033 RMK A01 T10281077  RH  069%=      5-min Rain = 0
KGDS 200340Z 23003KT M03/M08 A3033 RMK A01 T10301078  RH  070%=      5-min Rain = 0
KGDS 200345Z 22003KT M03/M08 A3033 RMK A01 T10271077  RH  069%=      5-min Rain = 0
KGDS 200350Z 20003KT M03/M08 A3033 RMK A01 T10291079  RH  068%=      5-min Rain = 0
KGDS 200355Z 21004KT M03/M08 A3034 RMK A01 T10281078  RH  068%=      5-min Rain = 0
KGDS 200400Z 22001KT M03/M08 A3033 RMK A01 T10281080  RH  068%=      5-min Rain = 0
KGDS 200405Z 07000KT M03/M08 A3033 RMK A01 T10261080  RH  066%=      5-min Rain = 0
KGDS 200410Z 06002KT M02/M08 A3033 RMK A01 T10241080  RH  065%=      5-min Rain = 0
KGDS 200415Z 07004KT M03/M08 A3033 RMK A01 T10251080  RH  066%=      5-min Rain = 0
KGDS 200420Z 09003KT M02/M08 A3033 RMK A01 T10211081  RH  064%=      5-min Rain = 0
KGDS 200425Z 08004KT M02/M08 A3033 RMK A01 T10161081  RH  061%=      5-min Rain = 0
KGDS 200430Z 08005KT M02/M08 A3033 RMK A01 T10191080  RH  063%=      5-min Rain = 0
KGDS 200435Z 09005KT M02/M08 A3032 RMK A01 T10221079  RH  065%=      5-min Rain = 0
KGDS 200440Z 10005KT M02/M08 A3032 RMK A01 T10241080  RH  065%=      5-min Rain = 0
KGDS 200445Z 10006KT M02/M08 A3032 RMK A01 T10231080  RH  065%=      5-min Rain = 0
KGDS 200450Z 10006KT M02/M08 A3032 RMK A01 T10241080  RH  065%=      5-min Rain = 0
KGDS 200455Z 09005KT M02/M08 A3032 RMK A01 T10231080  RH  065%=      5-min Rain = 0
KGDS 200500Z 08006KT M02/M08 A3032 RMK A01 T10231080  RH  065%=      5-min Rain = 0
KGDS 200505Z 08006KT M02/M08 A3033 RMK A01 T10231079  RH  065%=      5-min Rain = 0
KGDS 200510Z 07007KT M02/M08 A3032 RMK A01 T10231079  RH  065%=      5-min Rain = 0
KGDS 200515Z 06008KT M02/M08 A3032 RMK A01 T10221078  RH  065%=      5-min Rain = 0
KGDS 200520Z 06007KT M02/M08 A3032 RMK A01 T10241078  RH  066%=      5-min Rain = 0
KGDS 200525Z 06008KT M03/M08 A3033 RMK A01 T10271078  RH  068%=      5-min Rain = 0
KGDS 200530Z 06008KT M03/M08 A3033 RMK A01 T10281078  RH  068%=      5-min Rain = 0
KGDS 200535Z 06008KT M03/M08 A3033 RMK A01 T10301079  RH  069%=      5-min Rain = 0
KGDS 200540Z 06007KT M03/M08 A3033 RMK A01 T10311080  RH  069%=      5-min Rain = 0
KGDS 200545Z 06007KT M04/M08 A3033 RMK A01 T10361080  RH  071%=      5-min Rain = 0
KGDS 200550Z 06006KT M04/M08 A3034 RMK A01 T10351080  RH  071%=      5-min Rain = 0
KGDS 200555Z 07007KT M03/M08 A3033 RMK A01 T10341079  RH  071%=      5-min Rain = 0

Page generated in 0.0091 seconds.